Time;durP1;ratioP1;P1;durP2;ratioP2;P2;SDS_P1;SDS_P2;PMS_P1;PMS_P2;Temp;Humidity;BMP_temperature;BMP_pressure;BME280_temperature;BME280_humidity;BME280_pressure;Samples;Min_cycle;Max_cycle;Signal;HPM_P1;HPM_P2
2023/08/10 00:19:11;;;;;;;0.20;0.20;;;;;;;20.31;56.57;99697.41;4960285;28;19929;-96
2023/08/10 00:21:41;;;;;;;0.32;0.32;;;;;;;20.34;56.46;99704.38;4959099;28;20050;-95
2023/08/10 00:24:06;;;;;;;1.75;1.48;;;;;;;20.47;56.54;99724.19;4944543;28;20059;-95
2023/08/10 00:26:33;;;;;;;0.45;0.43;;;;;;;20.24;56.81;99697.84;4934601;29;20150;-95
2023/08/10 00:31:40;;;;;;;0.95;0.50;;;;;;;20.27;57.29;99705.69;5115222;23;20061;-96
2023/08/10 00:34:07;;;;;;;0.75;0.52;;;;;;;20.37;57.39;99707.78;5014352;28;20034;-94
2023/08/10 00:36:35;;;;;;;0.20;0.20;;;;;;;20.28;56.69;99668.13;5013077;28;20591;-94
2023/08/10 00:39:02;;;;;;;0.40;0.40;;;;;;;20.27;57.24;99695.84;5012961;28;20037;-96
2023/08/10 00:41:28;;;;;;;0.57;0.52;;;;;;;20.20;57.71;99729.25;5012748;28;20026;-95
2023/08/10 00:43:55;;;;;;;0.52;0.52;;;;;;;20.17;57.49;99699.97;5225432;23;20058;-96
2023/08/10 00:46:25;;;;;;;0.40;0.40;;;;;;;20.39;57.57;99743.38;5015327;28;20547;-96
2023/08/10 00:48:51;;;;;;;0.40;0.40;;;;;;;20.41;57.70;99737.09;5053380;23;20564;-94
2023/08/10 01:11:29;;;;;;;0.30;0.30;;;;;;;20.42;56.94;99688.78;5549827;23;20061;-95
2023/08/10 01:14:31;;;;;;;0.30;0.30;;;;;;;20.54;57.30;99708.63;4995448;28;20029;-90
2023/08/10 01:16:59;;;;;;;0.40;0.40;;;;;;;20.42;56.90;99695.94;4994969;28;20056;-92
2023/08/10 01:19:25;;;;;;;0.10;0.10;;;;;;;20.49;57.17;99705.34;5012307;28;20044;-92
2023/08/10 01:22:09;;;;;;;0.25;0.25;;;;;;;20.30;57.71;99687.63;4994955;28;20029;-91
2023/08/10 01:24:41;;;;;;;0.30;0.20;;;;;;;20.32;57.78;99684.88;4997536;28;20069;-93
2023/08/10 01:27:10;;;;;;;0.70;0.47;;;;;;;20.18;58.13;99664.22;5000901;28;20033;-94
2023/08/10 01:29:36;;;;;;;0.32;0.32;;;;;;;20.32;58.33;99685.72;4997749;28;20127;-92
2023/08/10 01:32:02;;;;;;;0.22;0.22;;;;;;;20.57;58.42;99712.03;5016814;28;20029;-96
2023/08/10 01:34:28;;;;;;;1.17;0.50;;;;;;;20.57;58.84;99735.25;5014725;28;20030;-96
2023/08/10 01:36:54;;;;;;;0.25;0.25;;;;;;;20.42;58.77;99695.94;5014304;28;20034;-96
2023/08/10 01:39:52;;;;;;;0.95;0.85;;;;;;;20.00;58.88;99612.53;5238932;23;20053;-96
2023/08/10 01:42:30;;;;;;;0.22;0.22;;;;;;;19.94;59.20;99618.22;4967553;28;20054;-91
2023/08/10 01:44:56;;;;;;;2.92;1.45;;;;;;;20.24;59.36;99673.72;5003662;28;20130;-96
2023/08/10 01:47:51;;;;;;;0.60;0.40;;;;;;;20.25;59.49;99670.97;4994668;28;20046;-96
2023/08/10 01:53:56;;;;;;;0.20;0.20;;;;;;;20.29;59.74;99695.75;4931133;29;20059;-96
2023/08/10 01:56:52;;;;;;;1.45;0.90;;;;;;;20.26;59.84;99704.81;4921658;29;20080;-96
2023/08/10 01:59:43;;;;;;;1.45;0.75;;;;;;;20.00;59.97;99658.94;5691272;23;20058;-96
2023/08/10 02:02:09;;;;;;;4.85;0.90;;;;;;;20.17;60.13;99686.56;5014718;28;20075;-94
2023/08/10 02:04:35;;;;;;;0.52;0.47;;;;;;;20.32;59.71;99698.25;5032498;28;20033;-94
2023/08/10 02:07:01;;;;;;;0.30;0.30;;;;;;;20.22;60.11;99689.88;5013106;28;20033;-94
2023/08/10 02:09:27;;;;;;;0.30;0.30;;;;;;;20.20;60.40;99700.69;5013659;28;20124;-94
2023/08/10 02:11:52;;;;;;;0.47;0.32;;;;;;;20.27;60.36;99719.09;5013215;28;20153;-94
2023/08/10 02:14:19;;;;;;;0.10;0.10;;;;;;;20.46;60.24;99726.97;5014275;28;20091;-94
2023/08/10 02:16:45;;;;;;;4.90;0.57;;;;;;;20.36;60.18;99705.19;5031808;28;20380;-94
2023/08/10 02:19:10;;;;;;;0.40;0.40;;;;;;;20.31;60.34;99701.88;5014080;28;20125;-94
2023/08/10 02:21:36;;;;;;;0.70;0.40;;;;;;;20.47;60.60;99731.38;5032138;28;20834;-93
2023/08/10 02:24:01;;;;;;;1.02;0.70;;;;;;;20.20;61.28;99721.22;5034702;28;20033;-94
2023/08/10 02:29:51;;;;;;;;;;;;;;;20.33;61.87;99730.31;5032240;28;20478;-94
2023/08/10 02:32:37;;;;;;;0.20;0.20;;;;;;;20.35;61.73;99727.56;5013815;28;19921;-94
2023/08/10 02:35:51;;;;;;;0.70;0.50;;;;;;;20.14;61.92;99702.81;5032714;23;20062;-96
2023/08/10 02:38:37;;;;;;;0.30;0.30;;;;;;;19.79;61.92;99652.06;4980589;28;20041;-95
2023/08/10 02:52:54;;;;;;;0.70;0.63;;;;;;;20.37;62.44;99744.41;5302898;23;20072;-95
2023/08/10 02:57:56;;;;;;;0.30;0.30;;;;;;;19.75;62.41;99643.28;5275200;23;19917;-96
2023/08/10 03:00:22;;;;;;;1.27;0.90;;;;;;;20.06;62.25;99686.31;5023013;28;20041;-90
2023/08/10 03:02:50;;;;;;;0.65;0.60;;;;;;;20.17;62.36;99706.19;5015702;28;20048;-91
2023/08/10 03:05:18;;;;;;;0.45;0.25;;;;;;;20.22;62.28;99703.28;5016298;28;20056;-90
2023/08/10 03:07:45;;;;;;;0.30;0.30;;;;;;;20.20;63.07;99722.09;5034045;28;20030;-91
2023/08/10 03:10:11;;;;;;;0.45;0.45;;;;;;;20.01;64.18;99724.88;5007914;28;20029;-90
2023/08/10 03:12:41;;;;;;;0.60;0.60;;;;;;;20.06;63.53;99727.31;5014836;28;20503;-92
2023/08/10 03:15:09;;;;;;;5.38;2.28;;;;;;;19.74;63.68;99679.03;5008661;28;20550;-94
2023/08/10 03:26:42;;;;;;;2.97;1.20;;;;;;;20.01;64.13;99753.47;4923500;29;20305;-95
2023/08/10 03:29:07;;;;;;;0.30;0.30;;;;;;;20.00;64.19;99735.69;4917781;29;20131;-91
2023/08/10 03:31:33;;;;;;;0.40;0.40;;;;;;;19.83;63.92;99689.28;4930839;29;20550;-88
2023/08/10 03:34:00;;;;;;;0.68;0.52;;;;;;;20.09;64.28;99737.88;4925188;29;20541;-89
2023/08/10 03:36:25;;;;;;;5.57;0.40;;;;;;;20.08;63.77;99708.50;4935703;29;20027;-90
2023/08/10 03:38:51;;;;;;;0.20;0.20;;;;;;;19.91;64.20;99694.22;4917885;29;20039;-87
2023/08/10 03:41:16;;;;;;;0.50;0.40;;;;;;;19.98;64.31;99703.63;4929158;29;20504;-89
2023/08/10 03:43:41;;;;;;;3.33;1.45;;;;;;;19.86;64.61;99717.66;4934985;29;20040;-87
2023/08/10 03:46:09;;;;;;;0.52;0.50;;;;;;;20.00;64.32;99733.00;4934335;29;20431;-94
2023/08/10 03:48:34;;;;;;;0.63;0.60;;;;;;;20.04;64.57;99732.75;4933739;29;20483;-91
2023/08/10 03:51:00;;;;;;;8.88;0.60;;;;;;;20.01;63.78;99713.31;4933476;29;20082;-87
2023/08/10 03:53:25;;;;;;;3.10;2.28;;;;;;;19.92;64.15;99703.97;4937100;29;20406;-95
2023/08/10 03:59:12;;;;;;;;;;;;;;;20.07;64.21;99733.56;5055965;28;20072;-96
2023/08/10 04:01:48;;;;;;;0.70;0.70;;;;;;;19.73;64.27;99674.63;5014845;28;19925;-96
2023/08/10 04:04:15;;;;;;;0.65;0.63;;;;;;;19.64;64.88;99672.44;5007478;28;20052;-96
2023/08/10 04:06:42;;;;;;;0.40;0.40;;;;;;;20.02;64.92;99734.66;5024005;28;20099;-96
2023/08/10 04:09:09;;;;;;;0.70;0.60;;;;;;;19.71;64.97;99689.91;5005213;28;20045;-94
2023/08/10 04:11:35;;;;;;;0.60;0.55;;;;;;;20.06;65.10;99737.16;5014782;28;20037;-89
2023/08/10 04:14:00;;;;;;;9.57;1.35;;;;;;;20.11;64.74;99719.91;5013647;28;20460;-91
2023/08/10 04:16:26;;;;;;;4.47;1.00;;;;;;;20.23;64.22;99739.78;5015640;28;20061;-96
2023/08/10 04:18:51;;;;;;;0.90;0.60;;;;;;;20.12;64.82;99744.88;5013653;28;20052;-96
2023/08/10 04:21:17;;;;;;;0.73;0.40;;;;;;;19.87;63.15;99694.47;5154975;23;20062;-90
2023/08/10 04:23:42;;;;;;;1.23;0.40;;;;;;;19.60;64.08;99694.94;4989350;28;20110;-91
2023/08/10 04:26:09;;;;;;;1.08;1.00;;;;;;;20.01;63.89;99740.09;4992915;28;20126;-93
2023/08/10 04:28:34;;;;;;;0.47;0.35;;;;;;;19.85;64.19;99714.13;4992967;28;20050;-94
2023/08/10 04:31:00;;;;;;;1.23;0.70;;;;;;;19.71;63.64;99663.16;5126529;23;20045;-88
2023/08/10 04:33:25;;;;;;;8.05;2.05;;;;;;;20.19;62.55;99727.53;5011729;28;20033;-93
2023/08/10 04:35:52;;;;;;;2.75;1.58;;;;;;;20.43;62.70;99751.25;5010830;28;20468;-95
2023/08/10 04:38:18;;;;;;;2.13;0.90;;;;;;;20.55;61.92;99746.06;4977194;28;20039;-90
2023/08/10 04:40:43;;;;;;;0.40;0.40;;;;;;;20.59;60.45;99722.66;5010839;28;20044;-94
2023/08/10 04:43:09;;;;;;;0.57;0.50;;;;;;;20.70;60.36;99736.34;5010769;28;20030;-94
2023/08/10 04:45:36;;;;;;;0.98;0.73;;;;;;;20.72;59.59;99725.53;5010499;28;20030;-93
2023/08/10 04:48:01;;;;;;;1.50;1.40;;;;;;;20.87;58.68;99730.03;4995075;28;20083;-95
2023/08/10 04:50:27;;;;;;;0.40;0.40;;;;;;;20.95;57.35;99726.06;5010962;28;20105;-89
2023/08/10 04:52:53;;;;;;;1.17;1.08;;;;;;;21.17;56.53;99726.50;5010979;28;20034;-93
2023/08/10 04:55:18;;;;;;;0.63;0.47;;;;;;;21.27;54.87;99730.41;5010891;28;20038;-96
2023/08/10 04:57:44;;;;;;;0.25;0.25;;;;;;;21.23;54.36;99726.16;5010655;28;20033;-96
2023/08/10 05:00:13;;;;;;;1.25;0.73;;;;;;;21.51;54.54;99747.84;5009905;28;20046;-89
2023/08/10 05:02:39;;;;;;;1.15;0.68;;;;;;;21.58;53.78;99760.81;4999362;28;20121;-94
2023/08/10 05:05:06;;;;;;;0.73;0.70;;;;;;;21.78;53.60;99764.09;5001995;28;20022;-94
2023/08/10 05:07:32;;;;;;;0.57;0.50;;;;;;;21.82;53.23;99753.06;5008672;28;20419;-94
2023/08/10 05:09:59;;;;;;;0.88;0.40;;;;;;;21.62;55.02;99753.44;5009803;28;20107;-88
2023/08/10 05:12:25;;;;;;;3.63;0.47;;;;;;;22.07;54.33;99770.38;5011456;28;20033;-90
2023/08/10 05:14:50;;;;;;;0.57;0.40;;;;;;;22.09;54.09;99719.25;5007912;28;20109;-96
2023/08/10 05:17:17;;;;;;;1.58;0.77;;;;;;;22.32;52.03;99723.22;4998811;28;20066;-93
2023/08/10 05:19:42;;;;;;;1.65;0.98;;;;;;;22.88;51.10;99763.56;4996652;28;20080;-96
2023/08/10 05:22:10;;;;;;;1.00;0.40;;;;;;;22.95;50.59;99745.19;5004308;28;20057;-95
2023/08/10 05:24:36;;;;;;;1.92;1.00;;;;;;;23.30;51.10;99761.72;4998837;28;20492;-96
2023/08/10 05:27:02;;;;;;;0.88;0.75;;;;;;;23.28;51.23;99762.75;5010109;28;20518;-91
2023/08/10 05:29:29;;;;;;;0.20;0.20;;;;;;;23.73;50.20;99771.41;5002643;28;20121;-96
2023/08/10 05:31:55;;;;;;;1.38;1.27;;;;;;;23.58;51.04;99749.06;5003579;28;20440;-93
2023/08/10 05:34:21;;;;;;;0.20;0.20;;;;;;;23.86;50.06;99747.22;5011112;28;20045;-93
2023/08/10 05:36:46;;;;;;;2.00;0.90;;;;;;;23.83;50.40;99756.31;5011650;28;20026;-91
2023/08/10 05:39:12;;;;;;;2.33;2.00;;;;;;;24.25;49.96;99764.22;5009016;28;20490;-90
2023/08/10 05:41:38;;;;;;;0.57;0.43;;;;;;;24.28;47.91;99739.75;5009874;28;20041;-93
2023/08/10 05:44:04;;;;;;;0.98;0.75;;;;;;;24.36;49.32;99758.06;5007591;28;20040;-93
2023/08/10 05:46:31;;;;;;;2.70;1.45;;;;;;;24.32;49.08;99749.34;4993375;28;20037;-88
2023/08/10 05:48:56;;;;;;;1.55;0.43;;;;;;;24.31;48.59;99709.88;5010278;28;20046;-88
2023/08/10 05:51:22;;;;;;;0.60;0.60;;;;;;;24.66;48.32;99739.72;5006955;28;20116;-89
2023/08/10 05:53:47;;;;;;;2.83;1.05;;;;;;;25.01;46.90;99754.28;5001093;28;20030;-89
2023/08/10 05:56:13;;;;;;;0.38;0.35;;;;;;;24.33;48.87;99725.94;5010433;28;20030;-90
2023/08/10 05:58:38;;;;;;;8.70;0.85;;;;;;;24.86;47.50;99752.72;5010616;28;20460;-90
2023/08/10 06:01:03;;;;;;;0.45;0.45;;;;;;;25.06;48.15;99754.81;5010623;28;20453;-89
2023/08/10 06:03:29;;;;;;;13.00;1.55;;;;;;;24.79;46.02;99730.72;5007975;28;20042;-90
2023/08/10 06:05:54;;;;;;;1.30;0.45;;;;;;;24.76;47.33;99712.94;5010379;28;20102;-88
2023/08/10 06:08:20;;;;;;;1.92;1.13;;;;;;;25.17;46.18;99735.97;5010661;28;20033;-95
2023/08/10 06:10:49;;;;;;;1.35;1.25;;;;;;;25.10;46.63;99750.03;5008948;28;20030;-91
2023/08/10 06:13:16;;;;;;;1.35;1.02;;;;;;;25.14;46.49;99760.47;5009501;28;20065;-91
2023/08/10 06:15:41;;;;;;;2.83;0.70;;;;;;;25.26;46.76;99750.59;5008800;28;20084;-90
2023/08/10 06:18:08;;;;;;;0.50;0.50;;;;;;;24.90;47.74;99770.38;5010787;28;20030;-88
2023/08/10 06:20:34;;;;;;;1.25;0.57;;;;;;;24.04;48.74;99737.84;5009743;28;20061;-91
2023/08/10 06:23:00;;;;;;;0.93;0.93;;;;;;;23.81;49.93;99777.13;5009900;28;20042;-88
2023/08/10 06:25:26;;;;;;;0.68;0.50;;;;;;;23.61;50.42;99775.78;5008466;28;20026;-88
2023/08/10 06:27:51;;;;;;;0.68;0.45;;;;;;;23.64;50.91;99798.97;5008863;28;20104;-88
2023/08/10 06:30:17;;;;;;;0.70;0.57;;;;;;;23.69;50.49;99764.50;5009647;28;20060;-92
2023/08/10 06:32:43;;;;;;;0.47;0.47;;;;;;;24.25;49.89;99789.38;5023565;28;20168;-89
2023/08/10 06:35:09;;;;;;;0.40;0.38;;;;;;;23.94;49.71;99747.53;4991495;28;20218;-92
2023/08/10 06:37:36;;;;;;;1.95;0.60;;;;;;;24.03;50.50;99768.44;4988514;28;20124;-92
2023/08/10 06:40:08;;;;;;;0.32;0.32;;;;;;;24.07;49.36;99769.94;4992430;28;20033;-96
2023/08/10 06:42:33;;;;;;;5.53;0.63;;;;;;;24.37;49.39;99774.13;5008099;28;20030;-93
2023/08/10 06:44:59;;;;;;;0.52;0.52;;;;;;;24.33;48.61;99753.78;5008182;28;20518;-91
2023/08/10 06:47:24;;;;;;;0.63;0.60;;;;;;;24.77;48.29;99783.94;5009493;28;20022;-93
2023/08/10 06:49:50;;;;;;;1.55;0.70;;;;;;;24.58;48.37;99757.44;5008562;28;20045;-94
2023/08/10 06:52:15;;;;;;;2.80;0.90;;;;;;;24.48;48.84;99766.16;4999256;28;20037;-96
2023/08/10 06:54:40;;;;;;;0.60;0.60;;;;;;;24.37;49.04;99757.09;5010144;28;20120;-91
2023/08/10 06:57:07;;;;;;;2.55;1.35;;;;;;;24.33;48.96;99753.78;5010696;28;20112;-95
2023/08/10 06:59:33;;;;;;;1.73;0.45;;;;;;;24.28;49.08;99758.63;5008795;28;20045;-91
2023/08/10 07:01:58;;;;;;;0.35;0.35;;;;;;;24.39;49.14;99771.31;5009542;28;20416;-95
2023/08/10 07:04:24;;;;;;;5.68;0.38;;;;;;;24.66;49.14;99779.31;5009595;28;20138;-94
2023/08/10 07:06:49;;;;;;;0.82;0.70;;;;;;;24.72;47.93;99772.63;5009720;28;20068;-92
2023/08/10 07:09:15;;;;;;;0.50;0.50;;;;;;;24.61;48.10;99754.53;5010790;28;20096;-94
2023/08/10 07:11:41;;;;;;;0.68;0.60;;;;;;;24.82;47.77;99795.22;5001653;28;20030;-94
2023/08/10 07:14:08;;;;;;;0.73;0.50;;;;;;;24.65;48.50;99764.97;5013517;28;20026;-95
2023/08/10 07:16:34;;;;;;;1.17;0.60;;;;;;;24.99;48.11;99775.09;4991259;28;20062;-95
2023/08/10 07:18:59;;;;;;;1.35;0.70;;;;;;;25.20;48.42;99787.00;4992606;28;20511;-96
2023/08/10 07:21:25;;;;;;;1.85;1.17;;;;;;;25.94;47.07;99809.44;4994155;28;20030;-96
2023/08/10 07:23:52;;;;;;;1.25;1.15;;;;;;;26.25;46.09;99787.16;5013928;28;20104;-96
2023/08/10 07:26:25;;;;;;;2.83;1.10;;;;;;;25.81;45.46;99758.19;4998433;28;20078;-96
2023/08/10 07:28:50;;;;;;;0.63;0.60;;;;;;;26.09;45.72;99808.28;5007577;28;20098;-95
2023/08/10 07:31:16;;;;;;;0.65;0.52;;;;;;;25.99;46.09;99799.16;4999212;28;20533;-96
2023/08/10 07:33:45;;;;;;;0.40;0.40;;;;;;;25.37;46.89;99774.97;4997678;28;20053;-96
2023/08/10 07:36:38;;;;;;;0.60;0.60;;;;;;;25.26;46.82;99801.91;4998573;28;20026;-96
2023/08/10 07:39:07;;;;;;;0.40;0.40;;;;;;;24.82;47.73;99806.03;4960318;28;20061;-96
2023/08/10 07:41:33;;;;;;;1.27;0.90;;;;;;;24.70;49.38;99807.78;4979830;28;20046;-92
2023/08/10 07:44:00;;;;;;;2.92;1.40;;;;;;;24.85;48.99;99789.63;4996887;28;20038;-95
2023/08/10 07:46:27;;;;;;;0.68;0.65;;;;;;;24.59;50.27;99768.13;4995743;28;20484;-90
2023/08/10 07:48:54;;;;;;;0.52;0.52;;;;;;;25.11;49.08;99814.69;4993569;28;20030;-93
2023/08/10 07:51:20;;;;;;;1.27;0.73;;;;;;;25.15;49.54;99789.19;4996324;28;20093;-93
2023/08/10 07:53:46;;;;;;;0.40;0.30;;;;;;;25.07;48.34;99815.91;4996267;28;20042;-95
2023/08/10 07:56:11;;;;;;;1.13;1.00;;;;;;;24.29;50.36;99782.75;4993285;28;20120;-93
2023/08/10 07:58:37;;;;;;;1.77;0.82;;;;;;;24.29;49.79;99798.09;4993732;28;20084;-93
2023/08/10 08:01:06;;;;;;;0.93;0.55;;;;;;;24.58;49.92;99811.38;5004619;28;20038;-91
2023/08/10 08:03:32;;;;;;;1.55;0.65;;;;;;;23.99;49.35;99755.28;5013237;28;20042;-90
2023/08/10 08:05:57;;;;;;;0.50;0.50;;;;;;;24.28;49.93;99786.44;5012323;28;20033;-91
2023/08/10 08:08:23;;;;;;;0.28;0.28;;;;;;;24.35;50.75;99824.59;5000043;28;20052;-93
2023/08/10 08:10:48;;;;;;;0.75;0.43;;;;;;;23.92;52.02;99785.34;5005762;28;20108;-93
2023/08/10 08:13:14;;;;;;;1.13;0.93;;;;;;;23.59;52.64;99789.34;5007603;28;20037;-95
2023/08/10 08:15:43;;;;;;;0.17;0.17;;;;;;;23.62;52.25;99809.84;5011379;28;20041;-92
2023/08/10 08:18:43;;;;;;;2.47;1.25;;;;;;;23.78;52.34;99825.81;5013581;28;20037;-95
2023/08/10 08:21:10;;;;;;;0.40;0.30;;;;;;;24.00;51.05;99810.91;5011503;28;20536;-93
2023/08/10 08:23:35;;;;;;;0.82;0.68;;;;;;;24.01;50.45;99789.25;5011532;28;20184;-95
2023/08/10 08:26:01;;;;;;;1.52;0.43;;;;;;;23.80;51.10;99826.56;5011713;28;20076;-94
2023/08/10 08:28:27;;;;;;;0.98;0.88;;;;;;;23.92;50.70;99835.66;5000947;28;20049;-96
2023/08/10 08:30:53;;;;;;;10.32;0.73;;;;;;;24.26;50.58;99822.56;4993371;28;20517;-87
2023/08/10 08:33:19;;;;;;;1.25;0.90;;;;;;;24.29;50.54;99809.72;5011167;28;20073;-88
2023/08/10 08:35:47;;;;;;;1.35;0.70;;;;;;;24.26;50.18;99849.50;5006214;28;20038;-96
2023/08/10 08:38:20;;;;;;;1.10;0.38;;;;;;;23.87;50.30;99783.97;4987514;28;20489;-94
2023/08/10 08:40:55;;;;;;;0.55;0.38;;;;;;;24.10;49.95;99837.09;4998211;28;20050;-93
2023/08/10 08:43:20;;;;;;;0.55;0.40;;;;;;;24.36;51.32;99837.13;5016855;28;20033;-94
2023/08/10 08:45:47;;;;;;;1.60;1.45;;;;;;;24.25;50.38;99843.25;5015828;28;20413;-95
2023/08/10 08:48:20;;;;;;;0.52;0.38;;;;;;;23.26;51.63;99857.03;5016644;28;20109;-95
2023/08/10 08:50:48;;;;;;;2.42;1.20;;;;;;;23.01;52.80;99815.56;5018628;28;20037;-94
2023/08/10 08:53:18;;;;;;;0.50;0.50;;;;;;;23.03;54.01;99848.63;5007827;28;20038;-94
2023/08/10 08:55:46;;;;;;;0.20;0.20;;;;;;;23.07;54.33;99844.75;4996178;28;20031;-91
2023/08/10 08:58:15;;;;;;;0.75;0.50;;;;;;;23.32;54.08;99805.50;5003203;28;20435;-94
2023/08/10 09:00:45;;;;;;;1.60;1.08;;;;;;;23.34;54.00;99843.97;5012503;28;20060;-94
2023/08/10 09:03:16;;;;;;;0.17;0.17;;;;;;;23.49;54.04;99835.84;5013153;28;20029;-95
2023/08/10 09:05:43;;;;;;;0.38;0.35;;;;;;;23.54;53.93;99812.16;5013382;28;20042;-92
2023/08/10 09:08:10;;;;;;;0.40;0.38;;;;;;;23.75;54.35;99824.16;4999580;28;20026;-91
2023/08/10 09:10:36;;;;;;;0.25;0.25;;;;;;;23.01;55.12;99837.09;5012628;28;20041;-89
2023/08/10 09:13:18;;;;;;;1.08;0.60;;;;;;;22.31;57.21;99837.88;5008775;28;20057;-90
2023/08/10 09:15:44;;;;;;;1.35;0.70;;;;;;;22.17;58.05;99827.97;5007115;28;20129;-94
2023/08/10 09:18:10;;;;;;;0.60;0.60;;;;;;;22.38;57.21;99797.22;4997319;28;20081;-94
2023/08/10 09:20:36;;;;;;;0.98;0.63;;;;;;;22.66;57.25;99799.00;5003598;28;20026;-92
2023/08/10 09:23:03;;;;;;;0.73;0.52;;;;;;;22.39;56.36;99762.19;5014080;28;20029;-96
2023/08/10 09:26:18;;;;;;;0.47;0.35;;;;;;;22.94;55.59;99830.41;5013480;28;20054;-96
2023/08/10 09:28:48;;;;;;;0.35;0.35;;;;;;;22.60;55.71;99792.22;5012634;28;20053;-95
2023/08/10 09:31:31;;;;;;;0.30;0.30;;;;;;;22.85;57.22;99839.91;5020531;28;20050;-96
2023/08/10 09:34:03;;;;;;;0.20;0.20;;;;;;;22.58;56.11;99788.75;5002218;28;20140;-94
2023/08/10 09:36:29;;;;;;;0.43;0.43;;;;;;;22.55;56.16;99785.41;5011325;28;20037;-92
2023/08/10 09:38:56;;;;;;;2.38;0.30;;;;;;;22.67;56.60;99806.13;5011186;28;20030;-94
2023/08/10 09:41:23;;;;;;;0.85;0.40;;;;;;;22.70;56.00;99801.41;5009414;28;20041;-91
2023/08/10 09:43:49;;;;;;;3.63;0.63;;;;;;;22.68;56.71;99811.41;5008291;28;20488;-95
2023/08/10 09:46:16;;;;;;;0.60;0.40;;;;;;;22.23;56.21;99742.56;4992285;28;20030;-93
2023/08/10 09:48:47;;;;;;;0.28;0.25;;;;;;;22.56;56.93;99790.66;5004762;28;20057;-92
2023/08/10 09:51:21;;;;;;;0.55;0.55;;;;;;;22.85;56.53;99796.03;5000437;28;20018;-95
2023/08/10 09:54:18;;;;;;;0.52;0.43;;;;;;;22.82;56.27;99793.53;5007193;28;20088;-95
2023/08/10 09:56:46;;;;;;;0.55;0.40;;;;;;;22.46;56.32;99747.41;5011936;28;20480;-96
2023/08/10 09:59:13;;;;;;;1.30;0.43;;;;;;;22.65;56.36;99803.53;5010290;28;20120;-95
2023/08/10 10:01:39;;;;;;;0.47;0.40;;;;;;;22.63;56.60;99777.69;5010031;28;20034;-90
2023/08/10 10:04:06;;;;;;;1.20;0.60;;;;;;;22.56;56.23;99758.41;4996153;28;20036;-96
2023/08/10 10:06:32;;;;;;;0.20;0.20;;;;;;;22.53;55.83;99793.56;5008420;28;20117;-95
2023/08/10 10:09:01;;;;;;;0.57;0.40;;;;;;;22.51;56.59;99779.34;5006004;28;20076;-96
2023/08/10 10:11:30;;;;;;;0.45;0.40;;;;;;;22.45;56.51;99756.41;4996808;28;20103;-93
2023/08/10 10:14:03;;;;;;;0.32;0.30;;;;;;;22.30;56.42;99739.44;5006787;28;20038;-95
2023/08/10 10:16:31;;;;;;;0.28;0.28;;;;;;;22.09;56.78;99725.50;5008654;28;20037;-90
2023/08/10 10:18:57;;;;;;;0.70;0.70;;;;;;;22.16;56.80;99726.81;5004382;28;20038;-94
2023/08/10 10:21:23;;;;;;;0.80;0.60;;;;;;;22.08;57.53;99760.50;4990774;28;20080;-95
2023/08/10 10:23:55;;;;;;;1.73;0.57;;;;;;;22.24;57.58;99795.34;4985342;28;20101;-96
2023/08/10 10:26:20;;;;;;;0.90;0.70;;;;;;;22.55;57.80;99793.47;4996985;28;20393;-93
2023/08/10 10:29:15;;;;;;;0.20;0.20;;;;;;;22.42;57.19;99769.19;4993623;28;20045;-96
2023/08/10 10:31:42;;;;;;;1.15;0.75;;;;;;;22.02;56.96;99745.63;4996877;28;20043;-95
2023/08/10 10:34:14;;;;;;;0.30;0.30;;;;;;;22.20;57.25;99764.25;4995063;28;20042;-89
2023/08/10 10:36:41;;;;;;;1.13;0.50;;;;;;;22.12;57.69;99776.34;5007752;28;20033;-95
2023/08/10 10:39:08;;;;;;;1.00;0.90;;;;;;;22.33;57.16;99781.38;4991172;28;20026;-91
2023/08/10 10:41:37;;;;;;;0.68;0.43;;;;;;;21.98;56.98;99746.78;5007715;28;20412;-89
2023/08/10 10:44:04;;;;;;;0.43;0.43;;;;;;;22.07;57.59;99761.47;5005635;28;20139;-93
2023/08/10 10:46:37;;;;;;;1.55;1.40;;;;;;;22.55;56.83;99774.66;5013140;28;20029;-95
2023/08/10 10:49:18;;;;;;;1.00;0.73;;;;;;;22.18;56.48;99746.41;4996290;28;20034;-89
2023/08/10 10:52:33;;;;;;;1.65;0.63;;;;;;;22.37;56.75;99780.22;5008270;28;20068;-94
2023/08/10 10:55:00;;;;;;;0.20;0.20;;;;;;;22.25;56.89;99736.13;4933373;29;20397;-89
2023/08/10 10:57:26;;;;;;;1.08;0.43;;;;;;;22.21;56.90;99742.66;4949481;29;20031;-94
2023/08/10 10:59:52;;;;;;;0.77;0.70;;;;;;;22.28;57.25;99781.63;4933343;29;20047;-93
2023/08/10 11:02:18;;;;;;;0.63;0.35;;;;;;;22.24;57.75;99782.75;4936957;29;20039;-96
2023/08/10 11:04:43;;;;;;;0.85;0.40;;;;;;;22.17;57.89;99757.25;4953390;29;20150;-96
2023/08/10 11:07:10;;;;;;;0.80;0.80;;;;;;;22.03;57.26;99759.91;4941595;29;20477;-94
2023/08/10 11:09:36;;;;;;;0.40;0.40;;;;;;;21.87;58.36;99743.88;4941443;29;20070;-90
2023/08/10 11:12:03;;;;;;;0.98;0.40;;;;;;;21.86;58.05;99769.00;4949088;29;20071;-93
2023/08/10 11:14:28;;;;;;;3.85;1.60;;;;;;;22.00;57.93;99748.41;4927979;29;20040;-89
2023/08/10 11:16:54;;;;;;;0.50;0.40;;;;;;;22.11;58.21;99785.34;4945320;29;20117;-88
2023/08/10 11:19:19;;;;;;;1.10;0.50;;;;;;;22.20;57.99;99754.38;4949068;29;20075;-92
2023/08/10 11:21:45;;;;;;;1.55;0.47;;;;;;;22.43;58.24;99774.47;4949847;29;20098;-92
2023/08/10 11:24:12;;;;;;;0.75;0.50;;;;;;;22.01;58.36;99770.75;4952979;28;20058;-94
2023/08/10 11:26:39;;;;;;;0.88;0.68;;;;;;;22.02;60.51;99804.72;4930853;29;20036;-90
2023/08/10 11:29:04;;;;;;;1.85;0.52;;;;;;;21.92;60.73;99752.53;4948970;29;20086;-91
2023/08/10 11:31:38;;;;;;;0.98;0.60;;;;;;;22.09;60.54;99779.22;4977416;28;20050;-96
2023/08/10 11:34:22;;;;;;;0.40;0.30;;;;;;;22.06;59.93;99765.09;5003877;28;20040;-96
2023/08/10 11:36:48;;;;;;;0.50;0.40;;;;;;;22.38;60.13;99818.69;5013184;28;20050;-94
2023/08/10 11:39:13;;;;;;;1.08;0.32;;;;;;;22.44;59.24;99824.56;4999260;28;20488;-96
2023/08/10 11:41:45;;;;;;;0.40;0.32;;;;;;;22.49;58.54;99810.81;5016698;28;20061;-96
2023/08/10 11:44:31;;;;;;;1.45;1.35;;;;;;;22.11;58.03;99784.50;5020533;28;20124;-96
2023/08/10 11:47:15;;;;;;;1.67;0.68;;;;;;;22.45;58.61;99780.59;5021229;28;20038;-95
2023/08/10 11:49:40;;;;;;;0.77;0.63;;;;;;;22.74;56.81;99793.13;5014594;28;20166;-94
2023/08/10 11:52:15;;;;;;;0.45;0.45;;;;;;;22.56;57.91;99781.75;5019650;28;20801;-97
2023/08/10 11:54:41;;;;;;;0.65;0.20;;;;;;;22.78;58.12;99811.66;5014219;28;20068;-93
2023/08/10 11:57:11;;;;;;;0.60;0.50;;;;;;;22.65;56.66;99778.47;5008196;28;20154;-88
2023/08/10 11:59:37;;;;;;;0.10;0.10;;;;;;;22.59;57.39;99793.16;4996351;28;20034;-87
2023/08/10 12:02:09;;;;;;;0.20;0.20;;;;;;;22.54;57.00;99773.78;4998250;28;20029;-95
2023/08/10 12:04:35;;;;;;;1.27;1.00;;;;;;;22.85;56.68;99770.00;5015132;28;20081;-92
2023/08/10 12:07:00;;;;;;;0.60;0.60;;;;;;;23.30;56.74;99780.53;4997943;28;20448;-91
2023/08/10 12:09:31;;;;;;;12.85;0.50;;;;;;;23.64;55.58;99801.66;4993855;28;20034;-93
2023/08/10 12:11:57;;;;;;;0.20;0.20;;;;;;;23.07;53.96;99761.38;4999160;28;20030;-92
2023/08/10 12:14:24;;;;;;;0.40;0.32;;;;;;;23.23;54.80;99787.28;5000331;28;20033;-92
2023/08/10 12:16:50;;;;;;;1.83;0.57;;;;;;;23.20;53.71;99784.81;4991614;28;20041;-92
2023/08/10 12:19:15;;;;;;;0.20;0.20;;;;;;;23.28;54.50;99765.47;4991162;28;20026;-92
2023/08/10 12:21:41;;;;;;;0.57;0.57;;;;;;;23.22;53.69;99769.44;4991667;28;20499;-87
2023/08/10 12:24:07;;;;;;;1.08;0.20;;;;;;;23.67;53.54;99791.53;4992267;28;20046;-86
2023/08/10 12:26:32;;;;;;;0.57;0.57;;;;;;;23.55;51.96;99792.34;4992644;28;20026;-87
2023/08/10 12:28:58;;;;;;;1.98;0.20;;;;;;;23.48;51.77;99781.16;4992361;28;20061;-95
2023/08/10 12:31:25;;;;;;;0.28;0.13;;;;;;;23.40;51.89;99768.22;4992584;28;20042;-87
2023/08/10 12:33:54;;;;;;;0.50;0.32;;;;;;;23.41;51.35;99753.75;4993489;28;20117;-92
2023/08/10 12:36:23;;;;;;;1.02;0.40;;;;;;;23.47;51.07;99789.34;4991515;28;20042;-95
2023/08/10 12:38:48;;;;;;;0.40;0.30;;;;;;;23.01;51.19;99759.06;4991926;28;20038;-91
2023/08/10 12:41:14;;;;;;;0.55;0.45;;;;;;;22.98;52.06;99772.72;4992693;28;20516;-92
2023/08/10 12:43:40;;;;;;;0.63;0.30;;;;;;;23.44;51.26;99795.78;4990729;28;20089;-94
2023/08/10 12:46:06;;;;;;;1.63;0.88;;;;;;;23.41;51.60;99793.28;4992754;28;20160;-84
2023/08/10 12:48:32;;;;;;;0.40;0.30;;;;;;;23.47;51.71;99781.25;4994536;28;20126;-92
2023/08/10 12:50:57;;;;;;;0.43;0.40;;;;;;;23.48;51.64;99751.53;4990374;28;20507;-89
2023/08/10 12:53:23;;;;;;;0.60;0.38;;;;;;;23.93;51.08;99768.22;4992394;28;20045;-91
2023/08/10 12:55:48;;;;;;;0.75;0.40;;;;;;;23.59;51.45;99743.59;4991994;28;20145;-85